createdAt,value
2019-05-21T00:01:04.999Z,8.50
2019-05-21T00:03:33.416Z,9.65
2019-05-21T00:06:01.849Z,8.85
2019-05-21T00:08:30.295Z,8.78
2019-05-21T00:10:58.714Z,8.05
2019-05-21T00:13:27.143Z,9.10
2019-05-21T00:15:55.572Z,9.45
2019-05-21T00:18:24.003Z,8.45
2019-05-21T00:20:52.420Z,9.08
2019-05-21T00:23:20.869Z,9.23
2019-05-21T00:25:49.293Z,10.70
2019-05-21T00:28:35.797Z,8.90
2019-05-21T00:31:40.567Z,9.05
2019-05-21T00:34:45.069Z,8.93
2019-05-21T00:37:50.105Z,10.72
2019-05-21T00:40:54.806Z,8.63
2019-05-21T00:43:45.888Z,8.43
2019-05-21T00:46:14.327Z,8.20
2019-05-21T00:48:42.754Z,9.18
2019-05-21T00:51:11.166Z,8.63
2019-05-21T00:53:39.631Z,10.15
2019-05-21T00:56:08.063Z,8.80
2019-05-21T00:58:36.537Z,9.18
2019-05-21T01:01:04.962Z,8.45
2019-05-21T01:03:33.393Z,9.75
2019-05-21T01:06:01.826Z,8.93
2019-05-21T01:08:30.247Z,8.95
2019-05-21T01:10:58.679Z,9.25
2019-05-21T01:13:27.967Z,9.40
2019-05-21T01:15:56.455Z,9.68
2019-05-21T01:18:24.897Z,9.60
2019-05-21T01:20:53.305Z,9.55
2019-05-21T01:23:21.761Z,11.48
2019-05-21T01:25:50.182Z,12.05
2019-05-21T01:28:18.600Z,9.78
2019-05-21T01:30:47.021Z,10.15
2019-05-21T01:33:15.455Z,9.97
2019-05-21T01:35:43.892Z,10.45
2019-05-21T01:38:12.406Z,12.47
2019-05-21T01:40:40.863Z,21.57
2019-05-21T01:43:09.338Z,18.57
2019-05-21T01:45:37.791Z,15.40
2019-05-21T01:48:06.217Z,21.07
2019-05-21T01:50:34.668Z,18.37
2019-05-21T01:53:03.227Z,17.00
2019-05-21T01:55:31.643Z,17.62
2019-05-21T01:58:00.074Z,15.13
2019-05-21T02:00:28.515Z,16.90
2019-05-21T02:02:56.946Z,13.68
2019-05-21T02:05:33.174Z,14.33
2019-05-21T02:07:56.107Z,15.45
2019-05-21T02:10:24.529Z,17.92
2019-05-21T02:12:53.239Z,14.85
2019-05-21T02:15:21.682Z,15.58
2019-05-21T02:17:50.126Z,14.28
2019-05-21T02:20:18.560Z,14.98
2019-05-21T02:22:46.997Z,15.10
2019-05-21T02:25:15.502Z,17.65
2019-05-21T02:27:43.959Z,15.68
2019-05-21T02:30:13.377Z,17.10
2019-05-21T02:32:41.801Z,17.95
2019-05-21T02:35:10.485Z,18.98
2019-05-21T02:37:38.907Z,18.77
2019-05-21T02:40:08.375Z,17.73
2019-05-21T02:42:36.845Z,20.87
2019-05-21T02:45:06.909Z,16.32
2019-05-21T02:47:35.335Z,18.98
2019-05-21T02:50:05.600Z,18.73
2019-05-21T02:52:34.118Z,21.87
2019-05-21T02:55:02.632Z,19.98
2019-05-21T02:57:42.992Z,20.72
2019-05-21T03:00:21.502Z,18.82
2019-05-21T03:02:49.952Z,22.58
2019-05-21T03:05:18.383Z,21.75
2019-05-21T03:07:46.916Z,20.20
2019-05-21T03:10:15.425Z,20.17
2019-05-21T03:12:43.851Z,20.10
2019-05-21T03:15:12.399Z,26.07
2019-05-21T03:17:40.824Z,23.77
2019-05-21T03:20:10.094Z,23.42
2019-05-21T03:22:38.536Z,23.83
2019-05-21T03:25:07.828Z,23.65
2019-05-21T03:27:36.251Z,23.07
2019-05-21T03:30:07.461Z,22.40
2019-05-21T03:32:35.932Z,21.70
2019-05-21T03:35:07.906Z,28.15
2019-05-21T03:37:36.330Z,22.90
2019-05-21T03:40:09.154Z,22.73
2019-05-21T03:42:37.599Z,23.40
2019-05-21T03:45:08.063Z,24.05
2019-05-21T03:47:36.779Z,22.48
2019-05-21T03:50:06.487Z,28.05
2019-05-21T03:52:35.026Z,22.93
2019-05-21T03:55:03.936Z,27.98
2019-05-21T03:57:32.717Z,25.92
2019-05-21T04:00:01.270Z,25.90
2019-05-21T04:02:29.665Z,26.25
2019-05-21T04:04:58.165Z,30.50
2019-05-21T04:07:26.550Z,28.17
2019-05-21T04:09:54.985Z,27.75
2019-05-21T04:12:23.430Z,29.15
2019-05-21T04:15:02.160Z,27.32
2019-05-21T04:17:34.861Z,25.97
2019-05-21T04:20:02.735Z,28.60
2019-05-21T04:22:31.205Z,28.98
2019-05-21T04:24:59.630Z,27.67
2019-05-21T04:27:28.058Z,30.10
2019-05-21T04:29:56.494Z,31.60
2019-05-21T04:32:24.913Z,29.70
2019-05-21T04:34:53.376Z,39.13
2019-05-21T04:37:21.803Z,29.48
2019-05-21T04:39:50.234Z,30.37
2019-05-21T04:42:18.684Z,30.35
2019-05-21T04:44:47.131Z,29.42
2019-05-21T04:47:15.749Z,29.32
2019-05-21T04:49:44.189Z,32.88
2019-05-21T04:52:12.612Z,30.97
2019-05-21T04:54:41.041Z,33.90
2019-05-21T04:57:09.495Z,32.63
2019-05-21T04:59:37.919Z,32.83
2019-05-21T05:02:06.368Z,32.33
2019-05-21T05:04:34.803Z,31.68
2019-05-21T05:07:03.312Z,34.48
2019-05-21T05:09:31.714Z,27.87
2019-05-21T05:12:00.168Z,31.40
2019-05-21T05:14:28.649Z,35.30
2019-05-21T05:16:57.079Z,36.85
2019-05-21T05:19:25.515Z,33.88
2019-05-21T05:21:53.939Z,32.25
2019-05-21T05:24:22.374Z,31.95
2019-05-21T05:26:50.839Z,36.98
2019-05-21T05:29:19.314Z,35.73
2019-05-21T05:31:47.773Z,32.20
2019-05-21T05:34:16.246Z,34.50
2019-05-21T05:36:44.644Z,32.73
2019-05-21T05:39:13.070Z,36.58
2019-05-21T05:41:41.522Z,38.63
2019-05-21T05:44:09.947Z,38.63
2019-05-21T14:34:32.160Z,51.00
2019-05-21T14:37:00.583Z,47.15
2019-05-21T14:39:29.076Z,54.53
2019-05-21T14:41:57.472Z,49.27
2019-05-21T14:44:25.942Z,46.20
2019-05-21T14:46:54.367Z,48.92
2019-05-21T14:49:22.798Z,43.20
2019-05-21T14:51:51.237Z,49.30
2019-05-21T14:54:26.658Z,48.38
2019-05-21T14:56:49.836Z,45.35
2019-05-21T14:59:18.346Z,45.45
2019-05-21T15:01:46.775Z,43.25
2019-05-21T15:04:15.385Z,47.45
2019-05-21T15:06:43.906Z,50.43
2019-05-21T15:09:12.341Z,45.40
2019-05-21T15:11:40.798Z,50.83
2019-05-21T15:14:09.227Z,55.15
2019-05-21T15:16:37.665Z,55.70
2019-05-21T15:19:06.170Z,52.88
2019-05-21T15:21:38.858Z,52.67
2019-05-21T15:24:08.316Z,49.60
2019-05-21T15:26:37.073Z,51.08
2019-05-21T15:29:05.511Z,51.10
2019-05-21T15:31:33.949Z,48.40
2019-05-21T15:34:02.391Z,45.10
2019-05-21T15:36:30.837Z,40.67
2019-05-21T15:38:59.313Z,46.18
2019-05-21T15:41:27.763Z,48.03
2019-05-21T15:43:56.161Z,46.98
2019-05-21T15:46:24.596Z,48.68
2019-05-21T15:48:53.607Z,42.48
2019-05-21T15:51:22.175Z,34.10
2019-05-21T15:53:50.640Z,37.38
2019-05-21T15:56:19.095Z,33.60
2019-05-21T15:58:47.617Z,40.28
2019-05-21T16:01:16.184Z,31.07
2019-05-21T16:03:44.656Z,38.17
2019-05-21T16:06:13.090Z,38.20
2019-05-21T16:08:41.597Z,43.45
2019-05-21T16:11:27.544Z,36.83
2019-05-21T16:13:40.716Z,33.58
2019-05-21T16:16:09.131Z,38.45
2019-05-21T16:18:37.575Z,41.50
2019-05-21T16:21:05.997Z,43.15
2019-05-21T16:23:34.460Z,39.05
2019-05-21T16:26:02.887Z,34.30
2019-05-21T16:28:31.324Z,36.17
2019-05-21T16:30:59.836Z,35.68
2019-05-21T16:33:28.264Z,33.63
2019-05-21T16:35:56.702Z,36.30
2019-05-21T16:38:25.213Z,42.53
2019-05-21T16:40:53.647Z,37.35
2019-05-21T16:43:22.337Z,41.28
2019-05-21T16:45:50.789Z,40.70
2019-05-21T16:48:20.306Z,42.93
2019-05-21T16:50:48.736Z,38.73
2019-05-21T16:53:17.178Z,45.73
2019-05-21T16:55:45.607Z,43.63
2019-05-21T16:58:14.211Z,34.70
2019-05-21T17:00:42.745Z,45.40
2019-05-21T17:03:11.213Z,38.45
2019-05-21T17:05:39.649Z,42.58
2019-05-21T17:08:08.179Z,46.08
2019-05-21T17:10:41.403Z,45.35
2019-05-21T17:13:14.933Z,45.78
2019-05-21T17:15:43.560Z,52.50
2019-05-21T17:18:12.099Z,38.10
2019-05-21T17:20:40.765Z,53.70
2019-05-21T17:23:09.417Z,45.98
2019-05-21T17:25:38.190Z,48.85
2019-05-21T17:28:06.697Z,40.83
2019-05-21T17:30:35.170Z,56.58
2019-05-21T17:33:03.698Z,50.53
2019-05-21T17:35:32.213Z,48.83
2019-05-21T17:38:00.633Z,46.80
2019-05-21T17:40:29.127Z,49.80
2019-05-21T17:42:57.558Z,53.27
2019-05-21T17:45:25.998Z,51.33
2019-05-21T17:47:54.439Z,54.55
2019-05-21T17:50:23.135Z,54.38
2019-05-21T17:52:51.781Z,53.33
2019-05-21T17:55:20.284Z,51.00
2019-05-21T17:57:48.851Z,50.98
2019-05-21T18:00:20.437Z,53.35
2019-05-21T18:02:49.472Z,54.55
2019-05-21T18:05:18.725Z,51.15
2019-05-21T18:07:47.234Z,48.70
2019-05-21T18:10:16.742Z,53.83
2019-05-21T18:12:45.701Z,52.43
2019-05-21T18:15:16.135Z,46.90
2019-05-21T18:17:44.777Z,48.13
2019-05-21T18:20:15.396Z,46.90
2019-05-21T18:22:45.683Z,42.53
2019-05-21T18:25:14.733Z,44.20
2019-05-21T18:27:43.233Z,41.83
2019-05-21T18:30:13.412Z,41.98
2019-05-21T18:32:41.852Z,40.58
2019-05-21T18:35:11.322Z,40.10
2019-05-21T18:37:39.799Z,40.60
2019-05-21T18:40:09.388Z,41.05
2019-05-21T18:42:37.879Z,41.35
2019-05-21T18:45:06.683Z,47.43
2019-05-21T18:47:35.113Z,42.35
2019-05-21T18:50:04.972Z,43.50
2019-05-21T18:52:33.453Z,41.63
2019-05-21T18:55:01.895Z,47.27
2019-05-21T18:57:30.315Z,49.25
2019-05-21T18:59:58.772Z,48.23
2019-05-21T19:02:27.201Z,48.65
2019-05-21T19:04:55.639Z,45.10
2019-05-21T19:07:24.134Z,43.78
2019-05-21T19:09:52.578Z,50.90
2019-05-21T19:12:21.074Z,49.60
2019-05-21T19:14:49.545Z,55.92
2019-05-21T19:17:17.982Z,45.05
2019-05-21T19:19:46.427Z,44.55
2019-05-21T19:22:14.862Z,35.90
2019-05-21T19:24:43.284Z,37.60
2019-05-21T19:27:11.809Z,35.65
2019-05-21T19:29:40.305Z,34.23
2019-05-21T19:32:08.743Z,32.08
2019-05-21T19:34:37.822Z,33.95
2019-05-21T19:37:06.474Z,34.08
2019-05-21T19:39:36.709Z,32.90
2019-05-21T19:42:05.188Z,32.98
2019-05-21T19:44:33.979Z,34.83
2019-05-21T19:47:02.478Z,37.73
2019-05-21T19:49:30.965Z,32.63
2019-05-21T19:51:59.417Z,34.23
2019-05-21T19:54:28.108Z,40.80
2019-05-21T19:56:58.346Z,30.50
2019-05-21T19:59:27.788Z,38.23
2019-05-21T20:02:01.083Z,46.23
2019-05-21T20:04:30.150Z,42.93
2019-05-21T20:06:59.437Z,44.95
2019-05-21T20:09:30.029Z,39.58
2019-05-21T20:11:58.628Z,39.65
2019-05-21T20:14:27.838Z,40.33
2019-05-21T20:16:58.903Z,46.95
2019-05-21T20:19:28.043Z,42.93
2019-05-21T20:21:56.517Z,45.78
2019-05-21T20:24:25.443Z,42.73
2019-05-21T20:26:54.411Z,42.50
2019-05-21T20:29:23.209Z,41.63
2019-05-21T20:31:52.958Z,42.67
2019-05-21T20:34:21.956Z,38.45
2019-05-21T20:36:50.387Z,41.53
2019-05-21T20:39:19.364Z,41.05
2019-05-21T20:41:48.639Z,40.47
2019-05-21T20:44:18.106Z,40.90
2019-05-21T20:46:46.732Z,40.45
2019-05-21T20:49:15.819Z,39.45
2019-05-21T20:51:44.666Z,42.30
2019-05-21T20:54:14.531Z,37.33
2019-05-21T20:56:43.535Z,35.17
2019-05-21T20:59:12.475Z,41.58
2019-05-21T21:01:42.340Z,46.03
2019-05-21T21:04:11.314Z,34.80
2019-05-21T21:06:40.520Z,40.77
2019-05-21T21:09:10.549Z,38.58
2019-05-21T21:11:39.411Z,37.47
2019-05-21T21:14:17.982Z,42.98
2019-05-21T21:16:40.106Z,40.23
2019-05-21T21:19:09.015Z,39.80
2019-05-21T21:21:38.245Z,35.90
2019-05-21T21:24:06.679Z,39.18
2019-05-21T21:26:35.953Z,34.80
2019-05-21T21:29:04.647Z,36.00
2019-05-21T21:31:33.141Z,36.80
2019-05-21T21:34:01.645Z,35.83
2019-05-21T21:36:30.630Z,36.97
2019-05-21T21:39:00.502Z,34.25
2019-05-21T21:41:29.555Z,36.83
2019-05-21T21:43:58.153Z,29.50
2019-05-21T21:46:26.634Z,34.50
2019-05-21T21:48:55.260Z,32.23
2019-05-21T21:51:24.920Z,27.65
2019-05-21T21:53:53.484Z,30.80
2019-05-21T21:56:22.422Z,31.05
2019-05-21T21:58:50.914Z,30.40
2019-05-21T22:01:35.665Z,31.07
2019-05-21T22:04:06.024Z,29.27
2019-05-21T22:09:07.722Z,27.95
2019-05-21T22:11:37.131Z,32.27
2019-05-21T22:14:05.796Z,29.40
2019-05-21T22:16:34.795Z,28.10
2019-05-21T22:19:03.365Z,31.48
2019-05-21T22:21:32.749Z,30.83
2019-05-21T22:24:01.747Z,29.63
2019-05-21T22:26:30.686Z,37.17
2019-05-21T22:28:59.138Z,27.55
2019-05-21T22:31:27.613Z,26.97
2019-05-21T22:33:56.030Z,29.77
2019-05-21T22:36:24.621Z,30.30
2019-05-21T22:38:53.083Z,31.87
2019-05-21T22:41:21.505Z,34.65
2019-05-21T22:43:50.309Z,31.07
2019-05-21T22:46:18.758Z,34.65
2019-05-21T22:48:47.173Z,31.77
2019-05-21T22:51:15.602Z,32.15
2019-05-21T22:53:44.423Z,35.68
2019-05-21T22:56:12.850Z,37.65
2019-05-21T22:58:41.306Z,42.73
2019-05-21T23:01:10.773Z,38.02
2019-05-21T23:03:39.377Z,40.40
2019-05-21T23:06:07.875Z,37.00
2019-05-21T23:08:36.783Z,39.27
2019-05-21T23:11:05.223Z,34.55
2019-05-21T23:13:33.690Z,39.10
2019-05-21T23:16:02.867Z,35.45
2019-05-21T23:18:31.840Z,42.83
2019-05-21T23:21:02.079Z,36.58
2019-05-21T23:23:32.298Z,39.63
2019-05-21T23:26:01.128Z,35.92
2019-05-21T23:28:31.250Z,37.80
2019-05-21T23:31:01.998Z,43.75
2019-05-21T23:33:30.692Z,42.62
2019-05-21T23:36:00.318Z,40.00
2019-05-21T23:38:28.742Z,40.67
2019-05-21T23:40:58.426Z,36.60
2019-05-21T23:45:55.648Z,34.88
2019-05-21T23:48:24.614Z,44.10
2019-05-21T23:50:53.090Z,44.05
2019-05-21T23:53:21.498Z,44.03
2019-05-21T23:55:50.698Z,41.45
2019-05-21T23:58:20.049Z,42.40
